Time;durP1;ratioP1;P1;durP2;ratioP2;P2;SDS_P1;SDS_P2;PMS_P1;PMS_P2;Temp;Humidity;BMP_temperature;BMP_pressure;BME280_temperature;BME280_humidity;BME280_pressure;Samples;Min_cycle;Max_cycle;Signal;HPM_P1;HPM_P2
2023/01/05 00:01:51;;;;;;;25.53;4.27;;;11.80;99.90;;;;;;5092194;28;20596;-74
2023/01/05 00:04:17;;;;;;;18.63;4.20;;;11.90;99.90;;;;;;5075265;28;20167;-75
2023/01/05 00:06:43;;;;;;;24.73;4.30;;;11.90;99.90;;;;;;5093141;28;20273;-74
2023/01/05 00:09:12;;;;;;;24.33;4.53;;;11.70;99.90;;;;;;5093150;28;20511;-74
2023/01/05 00:22:52;;;;;;;34.37;4.67;;;11.80;99.90;;;;;;5093065;28;20243;-76
2023/01/05 00:25:27;;;;;;;25.63;4.03;;;11.70;99.90;;;;;;5092292;28;20176;-75
2023/01/05 00:27:55;;;;;;;26.63;4.83;;;11.80;99.90;;;;;;5075034;28;20173;-75
2023/01/05 00:30:24;;;;;;;26.67;4.40;;;11.80;99.90;;;;;;5074795;28;20213;-76
2023/01/05 00:32:50;;;;;;;21.53;3.97;;;11.70;99.90;;;;;;5074889;28;20175;-74
2023/01/05 00:35:16;;;;;;;24.37;4.17;;;11.90;99.90;;;;;;5074708;28;20244;-75
2023/01/05 00:37:44;;;;;;;25.13;5.07;;;11.90;99.90;;;;;;5075057;28;20190;-74
2023/01/05 00:40:15;;;;;;;26.63;4.63;;;11.90;99.90;;;;;;5075029;28;20175;-76
2023/01/05 00:42:41;;;;;;;26.63;4.10;;;11.90;99.90;;;;;;5092674;28;20202;-76
2023/01/05 00:45:09;;;;;;;26.00;5.57;;;11.80;99.90;;;;;;5074752;28;20189;-74
2023/01/05 00:47:35;;;;;;;28.20;4.50;;;11.70;99.90;;;;;;5074575;28;20225;-75
2023/01/05 00:50:02;;;;;;;27.93;5.03;;;11.80;99.90;;;;;;5074507;28;20199;-75
2023/01/05 00:52:28;;;;;;;20.77;4.80;;;11.90;99.90;;;;;;5088360;28;20172;-74
2023/01/05 00:54:54;;;;;;;22.37;4.87;;;11.80;99.90;;;;;;5084948;28;20193;-75
2023/01/05 00:57:21;;;;;;;27.67;3.90;;;12.00;99.90;;;;;;5073993;28;20281;-75
2023/01/05 00:59:47;;;;;;;25.53;5.60;;;11.80;99.90;;;;;;5092894;28;20254;-75
2023/01/05 01:02:13;;;;;;;23.73;4.00;;;11.90;99.90;;;;;;5091114;28;20274;-75
2023/01/05 01:04:38;;;;;;;24.63;5.27;;;11.80;99.90;;;;;;5092394;28;20678;-74
2023/01/05 01:07:05;;;;;;;25.10;4.90;;;11.90;99.90;;;;;;5092307;28;20298;-74
2023/01/05 01:09:32;;;;;;;23.77;4.33;;;11.90;99.90;;;;;;5074546;28;20179;-74
2023/01/05 01:11:58;;;;;;;23.90;4.10;;;11.80;99.90;;;;;;5073760;28;20170;-74
2023/01/05 01:14:25;;;;;;;30.33;4.80;;;11.80;99.90;;;;;;5092602;28;20166;-75
2023/01/05 01:16:50;;;;;;;20.93;4.20;;;11.80;99.90;;;;;;5074182;28;20174;-75
2023/01/05 01:19:22;;;;;;;22.87;4.47;;;11.90;99.90;;;;;;5074125;28;20539;-75
2023/01/05 01:21:48;;;;;;;24.43;3.43;;;11.70;99.90;;;;;;5092383;28;20170;-75
2023/01/05 01:24:18;;;;;;;34.60;5.37;;;11.80;99.90;;;;;;5092300;28;20538;-75
2023/01/05 01:26:44;;;;;;;23.97;4.77;;;11.70;99.90;;;;;;5074209;28;20210;-75
2023/01/05 01:29:09;;;;;;;24.97;4.93;;;11.80;99.90;;;;;;5092455;28;20166;-75
2023/01/05 01:31:36;;;;;;;27.23;5.07;;;11.70;99.90;;;;;;5092176;28;20190;-75
2023/01/05 01:34:02;;;;;;;25.67;4.40;;;11.60;99.90;;;;;;5074009;28;20166;-75
2023/01/05 01:36:27;;;;;;;30.03;4.87;;;11.60;99.90;;;;;;5073964;28;20179;-75
2023/01/05 01:38:55;;;;;;;27.67;4.07;;;11.70;99.90;;;;;;5092264;28;20177;-75
2023/01/05 01:41:21;;;;;;;19.87;4.00;;;11.60;99.90;;;;;;5091561;28;20213;-74
2023/01/05 01:43:52;;;;;;;21.33;4.97;;;11.60;99.90;;;;;;5091444;28;20716;-75
2023/01/05 01:46:19;;;;;;;25.83;5.40;;;11.60;99.90;;;;;;5073940;28;20264;-75
2023/01/05 01:48:53;;;;;;;22.03;4.63;;;11.70;99.90;;;;;;5091783;28;20198;-75
2023/01/05 01:51:43;;;;;;;32.80;5.30;;;11.70;99.90;;;;;;5066477;28;20172;-75
2023/01/05 01:54:13;;;;;;;21.80;4.03;;;11.90;99.90;;;;;;5053754;28;20179;-75
2023/01/05 01:56:44;;;;;;;24.80;3.83;;;11.90;99.90;;;;;;5063033;28;20222;-75
2023/01/05 01:59:10;;;;;;;21.97;4.43;;;11.90;99.90;;;;;;5073460;28;20205;-75
2023/01/05 02:01:39;;;;;;;21.93;4.30;;;12.00;99.90;;;;;;5072580;28;20179;-75
2023/01/05 02:04:06;;;;;;;24.70;4.00;;;11.90;99.90;;;;;;5071997;28;20652;-75
2023/01/05 02:06:32;;;;;;;21.83;3.87;;;11.80;99.90;;;;;;5073164;28;20214;-75
2023/01/05 02:08:58;;;;;;;33.80;4.30;;;11.90;99.90;;;;;;5073634;28;20646;-75
2023/01/05 02:12:03;;;;;;;27.70;5.57;;;11.80;99.90;;;;;;5091950;28;20182;-75
2023/01/05 02:14:41;;;;;;;30.53;5.47;;;11.70;99.90;;;;;;5091526;28;20643;-75
2023/01/05 02:17:06;;;;;;;28.13;4.60;;;11.60;99.90;;;;;;5091352;28;20193;-75
2023/01/05 02:20:09;;;;;;;21.03;4.13;;;11.60;99.90;;;;;;5091596;28;20191;-75
2023/01/05 02:23:12;;;;;;;30.70;4.43;;;11.80;99.90;;;;;;5091812;28;20188;-75
2023/01/05 02:26:11;;;;;;;24.50;4.17;;;11.90;99.90;;;;;;5094751;28;20258;-75
2023/01/05 02:29:01;;;;;;;26.93;4.47;;;11.80;99.90;;;;;;5095216;28;20604;-75
2023/01/05 02:31:43;;;;;;;23.67;4.73;;;11.90;99.90;;;;;;5094311;28;20252;-75
2023/01/05 02:34:17;;;;;;;29.90;5.47;;;11.90;99.90;;;;;;5092480;28;20189;-75
2023/01/05 02:36:58;;;;;;;24.50;5.40;;;11.90;99.90;;;;;;5076547;28;20201;-75
2023/01/05 02:39:36;;;;;;;16.97;3.83;;;11.90;99.90;;;;;;5077028;28;20235;-75
2023/01/05 02:42:07;;;;;;;25.63;5.17;;;11.90;99.90;;;;;;5076852;28;20228;-75
2023/01/05 02:44:33;;;;;;;28.60;4.90;;;11.80;99.90;;;;;;5094625;28;20197;-75
2023/01/05 02:47:28;;;;;;;26.23;4.50;;;11.80;99.90;;;;;;5095011;28;20211;-76
2023/01/05 02:50:05;;;;;;;23.77;4.37;;;11.80;99.90;;;;;;5039181;28;20660;-75
2023/01/05 02:52:39;;;;;;;29.93;4.17;;;11.80;99.90;;;;;;5062003;28;20186;-75
2023/01/05 02:55:10;;;;;;;24.77;4.03;;;11.80;99.90;;;;;;5076547;28;20182;-75
2023/01/05 02:57:49;;;;;;;25.43;4.50;;;11.60;99.90;;;;;;5095128;28;20202;-75
2023/01/05 03:00:24;;;;;;;37.83;5.57;;;11.70;99.90;;;;;;5076151;28;20182;-75
2023/01/05 03:02:55;;;;;;;24.90;4.27;;;11.90;99.90;;;;;;5068338;28;20193;-75
2023/01/05 03:05:27;;;;;;;28.50;4.63;;;11.90;99.90;;;;;;5075712;28;20212;-75
2023/01/05 03:08:06;;;;;;;22.80;4.23;;;11.90;99.90;;;;;;5076367;28;20309;-75
2023/01/05 03:13:46;;;;;;;26.37;4.47;;;12.10;99.90;;;;;;5094957;28;20246;-75
2023/01/05 03:16:21;;;;;;;24.80;4.93;;;12.10;99.90;;;;;;5076107;28;20182;-75
2023/01/05 03:35:38;;;;;;;26.37;5.00;;;12.00;99.90;;;;;;5093437;28;20662;-75
2023/01/05 03:38:09;;;;;;;23.57;4.83;;;11.90;99.90;;;;;;5075867;28;20218;-74
2023/01/05 03:40:38;;;;;;;20.30;4.07;;;12.00;99.90;;;;;;5075866;28;20236;-75
2023/01/05 03:43:05;;;;;;;31.80;5.23;;;12.00;99.90;;;;;;5075982;28;20176;-75
2023/01/05 03:45:40;;;;;;;20.97;4.97;;;12.10;99.90;;;;;;5093736;28;20248;-75
2023/01/05 03:48:06;;;;;;;29.50;4.43;;;12.10;99.90;;;;;;5075102;28;20182;-75
2023/01/05 03:50:32;;;;;;;31.07;6.10;;;12.10;99.90;;;;;;5075439;28;20174;-75
2023/01/05 03:52:58;;;;;;;21.27;4.47;;;12.20;99.90;;;;;;5075636;28;20175;-75
2023/01/05 03:55:24;;;;;;;27.87;4.73;;;12.20;99.90;;;;;;5093587;28;20187;-73
2023/01/05 03:57:49;;;;;;;25.03;4.73;;;12.20;99.90;;;;;;5093628;28;20336;-74
2023/01/05 04:00:15;;;;;;;24.23;4.70;;;12.10;99.90;;;;;;5074968;28;20556;-74
2023/01/05 04:02:41;;;;;;;30.53;4.60;;;12.10;99.90;;;;;;5091355;28;20190;-74
2023/01/05 04:05:06;;;;;;;22.57;3.70;;;12.10;99.90;;;;;;5092437;28;20213;-74
2023/01/05 04:07:32;;;;;;;26.70;4.70;;;12.00;99.90;;;;;;5092668;28;20489;-74
2023/01/05 04:09:58;;;;;;;25.37;4.43;;;11.80;99.90;;;;;;5093446;28;20179;-74
2023/01/05 04:12:23;;;;;;;23.10;4.93;;;11.90;99.90;;;;;;5093463;28;20166;-74
2023/01/05 04:14:50;;;;;;;26.60;4.07;;;11.90;99.90;;;;;;5093239;28;20221;-74
2023/01/05 04:17:15;;;;;;;25.83;4.30;;;11.90;99.90;;;;;;5092675;28;20266;-74
2023/01/05 04:19:41;;;;;;;24.50;5.50;;;11.90;99.90;;;;;;5092989;28;20262;-74
2023/01/05 04:22:06;;;;;;;27.80;4.90;;;11.90;99.90;;;;;;5092941;28;20197;-74
2023/01/05 04:24:32;;;;;;;31.13;4.97;;;11.90;99.90;;;;;;5093158;28;20391;-73
2023/01/05 04:26:59;;;;;;;27.53;4.77;;;12.00;99.90;;;;;;5092926;28;20301;-74
2023/01/05 04:29:25;;;;;;;28.63;4.27;;;12.00;99.90;;;;;;5092952;28;20576;-74
2023/01/05 04:31:51;;;;;;;30.87;5.30;;;12.00;99.90;;;;;;5092377;28;20273;-74
2023/01/05 04:34:16;;;;;;;33.70;5.47;;;12.00;99.90;;;;;;5092565;28;20174;-74
2023/01/05 04:36:42;;;;;;;29.83;4.83;;;12.00;99.90;;;;;;5092387;28;20217;-74
2023/01/05 04:39:07;;;;;;;28.80;5.43;;;12.00;99.90;;;;;;5093087;28;20185;-74
2023/01/05 04:41:33;;;;;;;28.60;4.77;;;11.90;99.90;;;;;;5092255;28;20190;-74
2023/01/05 04:43:58;;;;;;;31.63;5.40;;;11.80;99.90;;;;;;5092390;28;20187;-75
2023/01/05 04:46:24;;;;;;;27.40;4.60;;;11.80;99.90;;;;;;5092055;28;20237;-73
2023/01/05 04:48:49;;;;;;;28.70;5.07;;;11.90;99.90;;;;;;5074299;28;20190;-73
2023/01/05 04:51:15;;;;;;;26.57;4.27;;;11.90;99.90;;;;;;5092615;28;20710;-73
2023/01/05 04:53:41;;;;;;;19.90;4.00;;;11.90;99.90;;;;;;5092689;28;20181;-73
2023/01/05 04:56:06;;;;;;;24.07;4.07;;;12.00;99.90;;;;;;5074453;28;20281;-73
2023/01/05 04:58:32;;;;;;;30.83;5.40;;;11.90;99.90;;;;;;5074172;28;20189;-74
2023/01/05 05:00:57;;;;;;;23.73;4.87;;;11.90;99.90;;;;;;5074013;28;20182;-73
2023/01/05 05:03:23;;;;;;;21.63;4.47;;;11.80;99.90;;;;;;5092583;28;20217;-73
2023/01/05 05:05:48;;;;;;;26.57;5.70;;;11.70;99.90;;;;;;5091337;28;20663;-73
2023/01/05 05:08:14;;;;;;;24.07;4.53;;;11.80;99.90;;;;;;5092138;28;20214;-73
2023/01/05 05:10:40;;;;;;;23.93;5.00;;;11.80;99.90;;;;;;5074359;28;20233;-73
2023/01/05 05:13:05;;;;;;;26.63;4.40;;;11.80;99.90;;;;;;5073884;28;20174;-73
2023/01/05 05:15:31;;;;;;;24.63;4.47;;;11.80;99.90;;;;;;5092538;28;20201;-73
2023/01/05 05:17:56;;;;;;;27.03;5.40;;;11.80;99.90;;;;;;5091684;28;20187;-73
2023/01/05 05:20:22;;;;;;;26.43;5.43;;;11.90;99.90;;;;;;5092043;28;20191;-73
2023/01/05 05:22:47;;;;;;;28.83;5.00;;;11.80;99.90;;;;;;5092130;28;20648;-73
2023/01/05 05:25:13;;;;;;;22.80;4.47;;;11.80;99.90;;;;;;5073606;28;20197;-73
2023/01/05 05:27:39;;;;;;;29.00;4.93;;;11.60;99.90;;;;;;5091902;28;20214;-73
2023/01/05 05:30:05;;;;;;;29.97;5.07;;;11.50;99.90;;;;;;5074110;28;20281;-73
2023/01/05 05:32:30;;;;;;;29.13;5.63;;;11.50;99.90;;;;;;5091700;28;20186;-73
2023/01/05 05:34:56;;;;;;;33.23;6.07;;;11.60;99.90;;;;;;5074034;28;20179;-73
2023/01/05 05:37:21;;;;;;;23.17;5.83;;;11.60;99.90;;;;;;5073785;28;20186;-73
2023/01/05 05:39:47;;;;;;;27.93;5.50;;;11.70;99.90;;;;;;5092067;28;20635;-75
2023/01/05 05:42:13;;;;;;;35.60;5.40;;;11.70;99.90;;;;;;5091861;28;20178;-74
2023/01/05 05:44:39;;;;;;;27.63;5.17;;;11.70;99.90;;;;;;5073803;28;20217;-73
2023/01/05 05:47:04;;;;;;;30.23;4.30;;;11.70;99.90;;;;;;5091765;28;20198;-73
2023/01/05 05:49:30;;;;;;;37.53;5.00;;;11.70;99.90;;;;;;5091822;28;20178;-73
2023/01/05 05:51:55;;;;;;;31.83;5.80;;;11.70;99.90;;;;;;5092040;28;20170;-74
2023/01/05 05:54:22;;;;;;;28.80;5.13;;;11.70;99.90;;;;;;5073579;28;20166;-73
2023/01/05 05:56:47;;;;;;;32.30;5.43;;;11.90;99.90;;;;;;5073796;28;20665;-73
2023/01/05 05:59:13;;;;;;;27.83;5.13;;;11.90;99.90;;;;;;5076974;28;20182;-75
2023/01/05 06:01:39;;;;;;;23.80;4.87;;;11.80;99.90;;;;;;5095812;28;20187;-73
2023/01/05 06:04:06;;;;;;;27.77;4.93;;;11.90;99.90;;;;;;5095461;28;20202;-75
2023/01/05 06:06:31;;;;;;;32.13;5.60;;;11.80;99.90;;;;;;5077381;28;20258;-73
2023/01/05 06:08:57;;;;;;;25.17;5.13;;;11.80;99.90;;;;;;5095786;28;20258;-73
2023/01/05 06:11:23;;;;;;;25.47;4.67;;;11.70;99.90;;;;;;5077765;28;20275;-73
2023/01/05 06:13:49;;;;;;;28.50;4.93;;;11.80;99.90;;;;;;5095787;28;20209;-74
2023/01/05 06:16:16;;;;;;;30.00;5.60;;;11.90;99.90;;;;;;5095556;28;20261;-74
2023/01/05 06:18:41;;;;;;;31.27;4.90;;;11.90;99.90;;;;;;5077468;28;20652;-74
2023/01/05 06:21:08;;;;;;;38.60;5.87;;;12.00;99.90;;;;;;5095894;28;20171;-74
2023/01/05 06:23:33;;;;;;;28.53;5.27;;;11.90;99.90;;;;;;5076641;28;20209;-74
2023/01/05 06:25:59;;;;;;;31.97;5.50;;;12.00;99.90;;;;;;5077450;28;20652;-74
2023/01/05 06:28:24;;;;;;;28.30;5.47;;;11.90;99.90;;;;;;5095041;28;20179;-74
2023/01/05 06:30:50;;;;;;;32.00;5.23;;;11.90;99.90;;;;;;5094879;28;20729;-74
2023/01/05 06:33:16;;;;;;;27.00;5.17;;;11.80;99.90;;;;;;5094581;28;20179;-74
2023/01/05 06:35:41;;;;;;;27.80;4.83;;;11.80;99.90;;;;;;5094666;28;20179;-74
2023/01/05 06:38:09;;;;;;;31.20;4.83;;;11.80;99.90;;;;;;5095078;28;20182;-74
2023/01/05 06:40:39;;;;;;;25.90;5.43;;;11.80;99.90;;;;;;5077437;28;20573;-74
2023/01/05 06:43:04;;;;;;;32.70;5.40;;;11.70;99.90;;;;;;5095650;28;20170;-74
2023/01/05 06:45:30;;;;;;;27.53;5.33;;;11.70;99.90;;;;;;5094935;28;20175;-74
2023/01/05 06:47:57;;;;;;;31.97;5.57;;;11.80;99.90;;;;;;5077015;28;20561;-74
2023/01/05 06:50:23;;;;;;;29.30;4.80;;;11.80;99.90;;;;;;5095379;28;20678;-74
2023/01/05 06:52:48;;;;;;;26.30;4.57;;;11.80;99.90;;;;;;5077022;28;20396;-74
2023/01/05 06:55:14;;;;;;;26.47;4.67;;;11.90;99.90;;;;;;5095288;28;20527;-74
2023/01/05 06:57:40;;;;;;;28.97;5.23;;;11.90;99.90;;;;;;5095080;28;20189;-74
2023/01/05 07:00:08;;;;;;;25.23;5.00;;;11.80;99.90;;;;;;5076982;28;20220;-74
2023/01/05 07:02:34;;;;;;;33.63;4.10;;;11.70;99.90;;;;;;5094040;28;20193;-74
2023/01/05 07:05:00;;;;;;;29.77;4.63;;;11.70;99.90;;;;;;5093819;28;20565;-74
2023/01/05 07:07:25;;;;;;;30.73;4.67;;;11.70;99.90;;;;;;5076152;28;20297;-74
2023/01/05 07:09:51;;;;;;;24.70;5.37;;;11.70;99.90;;;;;;5094182;28;20171;-74
2023/01/05 07:12:17;;;;;;;27.93;4.60;;;11.70;99.90;;;;;;5076876;28;20190;-74
2023/01/05 07:14:43;;;;;;;23.77;4.93;;;11.80;99.90;;;;;;5076579;28;20580;-74
2023/01/05 07:17:08;;;;;;;25.73;5.13;;;11.80;99.90;;;;;;5076216;28;20285;-74
2023/01/05 07:19:34;;;;;;;32.23;5.30;;;11.80;99.90;;;;;;5094488;28;20178;-74
2023/01/05 07:22:00;;;;;;;30.00;5.07;;;11.90;99.90;;;;;;5094698;28;20175;-74
2023/01/05 07:24:25;;;;;;;29.50;5.43;;;11.80;99.90;;;;;;5094122;28;20701;-74
2023/01/05 07:26:51;;;;;;;24.77;4.37;;;11.70;99.90;;;;;;5094510;28;20206;-74
2023/01/05 07:29:16;;;;;;;31.80;4.43;;;11.70;99.90;;;;;;5076559;28;20254;-75
2023/01/05 07:31:42;;;;;;;30.33;5.30;;;11.60;99.90;;;;;;5094681;28;20554;-75
2023/01/05 07:34:09;;;;;;;25.00;5.10;;;11.70;99.90;;;;;;5094699;28;20241;-75
2023/01/05 07:36:35;;;;;;;25.53;5.47;;;11.60;99.90;;;;;;5075398;28;20210;-75
2023/01/05 07:39:00;;;;;;;22.80;4.10;;;11.50;99.90;;;;;;5094452;28;20681;-75
2023/01/05 07:41:26;;;;;;;26.67;5.57;;;11.50;99.90;;;;;;5076035;28;20183;-74
2023/01/05 07:43:51;;;;;;;34.60;5.87;;;11.60;99.90;;;;;;5094110;28;20201;-74
2023/01/05 07:46:17;;;;;;;29.47;5.20;;;11.50;99.90;;;;;;5093871;28;20209;-74
2023/01/05 07:48:42;;;;;;;23.30;4.83;;;11.60;99.90;;;;;;5094079;28;20163;-74
2023/01/05 07:51:09;;;;;;;23.90;3.87;;;11.60;99.90;;;;;;5093247;28;20261;-74
2023/01/05 07:53:37;;;;;;;27.27;5.47;;;11.80;99.90;;;;;;5093841;28;20171;-74
2023/01/05 07:56:05;;;;;;;29.57;4.90;;;11.70;99.90;;;;;;5093404;28;20636;-74
2023/01/05 07:58:31;;;;;;;23.93;4.60;;;11.60;99.90;;;;;;5093685;28;20266;-74
2023/01/05 08:01:09;;;;;;;22.53;4.37;;;11.80;99.90;;;;;;5093428;28;20183;-74
2023/01/05 08:03:36;;;;;;;37.03;5.40;;;11.80;99.90;;;;;;5093018;28;20726;-74
2023/01/05 08:06:09;;;;;;;28.07;4.47;;;11.80;99.90;;;;;;5081102;28;20229;-74
2023/01/05 08:08:35;;;;;;;25.10;4.80;;;11.90;99.90;;;;;;5088983;28;20175;-74
2023/01/05 08:11:06;;;;;;;31.10;5.27;;;11.80;99.90;;;;;;5092777;28;20185;-74
2023/01/05 08:16:16;;;;;;;29.13;5.33;;;11.80;99.90;;;;;;5093663;28;20165;-74
2023/01/05 08:18:42;;;;;;;25.40;4.90;;;11.70;99.90;;;;;;5075129;28;20265;-74
2023/01/05 08:21:08;;;;;;;25.30;5.00;;;11.70;99.90;;;;;;5093102;28;20257;-75
2023/01/05 08:23:36;;;;;;;31.67;4.57;;;11.80;99.90;;;;;;5074182;28;20269;-73
2023/01/05 08:26:07;;;;;;;23.97;5.00;;;11.80;99.90;;;;;;5074159;28;20183;-73
2023/01/05 08:28:37;;;;;;;25.73;5.23;;;11.90;99.90;;;;;;5074988;28;20569;-74
2023/01/05 08:31:04;;;;;;;30.07;5.77;;;12.00;99.90;;;;;;5074677;28;20204;-75
2023/01/05 08:33:30;;;;;;;30.97;5.40;;;12.00;99.90;;;;;;5107109;28;20182;-74
2023/01/05 08:35:56;;;;;;;33.40;5.43;;;12.10;99.90;;;;;;5099049;28;20181;-74
2023/01/05 08:38:22;;;;;;;24.93;5.03;;;12.00;99.90;;;;;;5092912;28;20175;-73
2023/01/05 08:40:48;;;;;;;25.10;5.00;;;12.10;99.90;;;;;;5073832;28;20193;-73
2023/01/05 08:43:13;;;;;;;30.97;5.17;;;12.00;99.90;;;;;;5104033;28;20175;-75
2023/01/05 08:45:42;;;;;;;23.87;4.70;;;11.70;99.90;;;;;;5093442;28;20235;-73
2023/01/05 08:48:09;;;;;;;29.43;6.53;;;11.40;99.90;;;;;;5074219;28;20251;-75
2023/01/05 08:50:37;;;;;;;26.10;5.47;;;11.50;99.90;;;;;;5092174;28;20533;-73
2023/01/05 08:53:03;;;;;;;28.13;5.87;;;11.50;99.90;;;;;;5084478;28;20179;-73
2023/01/05 08:55:29;;;;;;;23.87;5.17;;;11.60;99.90;;;;;;5094807;28;20193;-73
2023/01/05 08:57:56;;;;;;;34.97;6.30;;;11.70;99.90;;;;;;5103448;28;20272;-73
2023/01/05 09:00:23;;;;;;;25.37;5.90;;;11.80;99.90;;;;;;5092570;28;20257;-73
2023/01/05 09:02:49;;;;;;;27.57;5.47;;;11.80;99.90;;;;;;5073316;28;20198;-76
2023/01/05 09:05:15;;;;;;;32.97;6.53;;;11.80;99.90;;;;;;5074315;28;20214;-74
2023/01/05 09:07:40;;;;;;;32.07;5.40;;;11.90;99.90;;;;;;5091450;28;20348;-74
2023/01/05 09:10:08;;;;;;;35.07;5.80;;;11.90;99.90;;;;;;5092591;28;20246;-75
2023/01/05 09:12:35;;;;;;;22.80;4.83;;;11.80;99.90;;;;;;5090792;28;20175;-74
2023/01/05 09:15:02;;;;;;;30.77;5.97;;;11.90;99.90;;;;;;5092486;28;20167;-74
2023/01/05 09:17:27;;;;;;;26.00;4.83;;;11.90;99.90;;;;;;5092475;28;20179;-74
2023/01/05 09:19:53;;;;;;;27.80;5.30;;;11.90;99.90;;;;;;5091768;28;20171;-74
2023/01/05 09:22:19;;;;;;;26.83;4.83;;;12.10;99.90;;;;;;5095701;28;20230;-74
2023/01/05 09:24:45;;;;;;;30.00;5.63;;;12.20;99.90;;;;;;5093633;28;20181;-74
2023/01/05 09:27:10;;;;;;;24.10;4.43;;;12.10;99.90;;;;;;5073869;28;20198;-74
2023/01/05 09:29:36;;;;;;;27.47;6.10;;;12.20;99.90;;;;;;5091455;28;20160;-74
2023/01/05 09:32:01;;;;;;;28.77;5.87;;;12.40;99.90;;;;;;5092486;28;20182;-73
2023/01/05 09:34:27;;;;;;;30.50;4.90;;;12.30;99.90;;;;;;5098930;28;20223;-74
2023/01/05 09:36:54;;;;;;;26.27;4.70;;;12.30;99.90;;;;;;5081234;28;20535;-74
2023/01/05 09:39:20;;;;;;;25.87;6.00;;;12.30;99.90;;;;;;5098914;28;20163;-75
2023/01/05 09:41:55;;;;;;;24.00;4.73;;;12.40;99.90;;;;;;5098532;28;20164;-75
2023/01/05 09:44:35;;;;;;;28.80;4.83;;;12.40;99.90;;;;;;5078843;28;20207;-74
2023/01/05 09:47:16;;;;;;;34.60;5.93;;;12.20;99.90;;;;;;5060989;28;20212;-74
2023/01/05 09:49:45;;;;;;;26.60;4.73;;;12.30;99.90;;;;;;5060073;28;20521;-74
2023/01/05 09:52:12;;;;;;;26.03;5.13;;;12.20;99.90;;;;;;5071638;28;20184;-74
2023/01/05 09:54:39;;;;;;;29.37;5.23;;;12.30;99.90;;;;;;5098217;28;20191;-74
2023/01/05 09:57:13;;;;;;;26.33;5.43;;;12.40;99.90;;;;;;5080599;28;20277;-74
2023/01/05 09:59:47;;;;;;;33.13;5.80;;;12.40;99.90;;;;;;5098767;28;20174;-74
2023/01/05 10:02:46;;;;;;;19.43;4.43;;;12.30;99.90;;;;;;5096595;28;20580;-74
2023/01/05 10:05:13;;;;;;;31.90;5.73;;;12.30;99.90;;;;;;5098136;28;20640;-74
2023/01/05 10:08:03;;;;;;;31.40;5.20;;;12.40;99.90;;;;;;5098495;28;20202;-73
2023/01/05 10:10:38;;;;;;;22.57;5.13;;;12.40;99.90;;;;;;5080393;28;20209;-74
2023/01/05 10:13:07;;;;;;;21.67;4.50;;;12.50;99.90;;;;;;5078494;28;20194;-74
2023/01/05 10:15:46;;;;;;;20.40;5.60;;;12.50;99.90;;;;;;5098539;28;20213;-74
2023/01/05 10:18:22;;;;;;;22.23;4.67;;;12.50;99.90;;;;;;5098562;28;20163;-74
2023/01/05 10:21:02;;;;;;;26.30;4.63;;;12.50;99.90;;;;;;5098520;28;20172;-74
2023/01/05 10:23:46;;;;;;;25.77;5.00;;;12.60;99.90;;;;;;5078612;28;20176;-74
2023/01/05 10:26:26;;;;;;;21.27;3.60;;;12.60;99.90;;;;;;5098233;28;20191;-75
2023/01/05 10:29:10;;;;;;;27.90;5.27;;;12.60;99.90;;;;;;5097932;28;20627;-75
2023/01/05 10:31:46;;;;;;;19.33;4.00;;;12.90;99.90;;;;;;5060111;28;20197;-74
2023/01/05 10:34:22;;;;;;;23.00;4.63;;;12.90;99.90;;;;;;5082554;28;20182;-74
2023/01/05 10:37:19;;;;;;;25.97;4.87;;;13.10;99.90;;;;;;5098402;28;20450;-74
2023/01/05 10:40:01;;;;;;;25.03;5.10;;;13.20;99.90;;;;;;5097526;28;20652;-74
2023/01/05 10:43:00;;;;;;;26.07;5.37;;;13.10;99.90;;;;;;5103036;28;20289;-73
2023/01/05 10:45:29;;;;;;;30.93;4.80;;;13.30;99.90;;;;;;5095803;28;20228;-76
2023/01/05 10:47:55;;;;;;;20.03;4.60;;;13.20;99.90;;;;;;5097055;28;20191;-74
2023/01/05 10:50:37;;;;;;;23.50;4.73;;;13.30;99.90;;;;;;5115285;28;20246;-74
2023/01/05 10:53:13;;;;;;;23.83;5.00;;;13.00;99.90;;;;;;5083682;28;20170;-74
2023/01/05 10:56:05;;;;;;;22.97;4.60;;;12.80;99.90;;;;;;5093708;28;20579;-74
2023/01/05 10:58:42;;;;;;;22.00;4.50;;;12.80;99.90;;;;;;5095394;28;20218;-74
2023/01/05 11:01:26;;;;;;;21.50;4.17;;;12.80;99.90;;;;;;5095007;28;20276;-75
2023/01/05 11:04:20;;;;;;;26.77;4.63;;;12.70;99.90;;;;;;5077439;28;20179;-74
2023/01/05 11:06:46;;;;;;;28.00;4.60;;;12.90;99.90;;;;;;5076252;28;20200;-74
2023/01/05 11:09:12;;;;;;;23.07;4.90;;;12.70;99.90;;;;;;5094642;28;20640;-74
2023/01/05 11:11:38;;;;;;;23.17;4.47;;;12.70;99.90;;;;;;5094765;28;20205;-74
2023/01/05 11:14:12;;;;;;;28.00;6.07;;;12.90;99.90;;;;;;5093401;28;20254;-74
2023/01/05 11:16:38;;;;;;;28.93;5.53;;;13.00;99.90;;;;;;5093842;28;20168;-74
2023/01/05 11:19:14;;;;;;;23.23;4.53;;;12.90;99.90;;;;;;5094700;28;20259;-74
2023/01/05 11:21:44;;;;;;;30.57;5.60;;;12.90;99.90;;;;;;5093691;28;20271;-74
2023/01/05 11:24:22;;;;;;;30.33;5.63;;;12.90;99.90;;;;;;5114509;28;20175;-74
2023/01/05 11:26:50;;;;;;;28.30;5.53;;;13.20;99.90;;;;;;5095705;28;20556;-74
2023/01/05 11:29:17;;;;;;;28.03;5.70;;;13.30;99.90;;;;;;5098792;28;20193;-74
2023/01/05 11:31:54;;;;;;;29.00;5.70;;;13.40;99.90;;;;;;5075846;28;20662;-74
2023/01/05 11:34:22;;;;;;;25.00;4.77;;;13.50;99.90;;;;;;5093916;28;20174;-74
2023/01/05 11:37:01;;;;;;;24.40;5.50;;;13.50;99.90;;;;;;5093440;28;20160;-74
2023/01/05 11:39:30;;;;;;;25.37;6.40;;;13.60;99.90;;;;;;5093667;28;20179;-74
2023/01/05 11:42:12;;;;;;;26.37;5.33;;;13.50;99.90;;;;;;5076048;28;20210;-74
2023/01/05 11:44:47;;;;;;;29.77;4.70;;;13.40;99.90;;;;;;5114591;28;20509;-74
2023/01/05 11:47:24;;;;;;;21.17;4.63;;;13.50;99.90;;;;;;5095158;28;20665;-74
2023/01/05 11:50:12;;;;;;;29.50;5.60;;;13.60;99.90;;;;;;5114358;28;20186;-74
2023/01/05 11:52:41;;;;;;;27.37;5.50;;;13.50;99.90;;;;;;5113083;28;20535;-74
2023/01/05 11:55:19;;;;;;;32.70;4.70;;;13.50;99.90;;;;;;5078368;28;20176;-74
2023/01/05 11:57:47;;;;;;;28.53;5.07;;;13.40;99.90;;;;;;5092855;28;20220;-74
2023/01/05 12:00:26;;;;;;;33.77;5.70;;;13.40;99.90;;;;;;5093723;28;20196;-74
2023/01/05 12:03:01;;;;;;;29.30;5.33;;;13.50;99.90;;;;;;5095965;28;20183;-74
2023/01/05 12:05:42;;;;;;;27.90;5.30;;;13.60;99.90;;;;;;5093479;28;20231;-74
2023/01/05 12:08:26;;;;;;;29.63;5.87;;;13.70;99.90;;;;;;5093085;28;20565;-74
2023/01/05 12:11:14;;;;;;;36.10;10.07;;;13.80;99.90;;;;;;5093034;28;20256;-74
2023/01/05 12:14:13;;;;;;;35.30;6.50;;;13.40;99.90;;;;;;5108377;28;20183;-74
2023/01/05 12:16:49;;;;;;;35.33;7.07;;;13.60;99.90;;;;;;5113588;28;20540;-74
2023/01/05 12:19:46;;;;;;;27.37;6.30;;;13.50;99.90;;;;;;5112969;28;20187;-75
2023/01/05 12:22:11;;;;;;;32.20;5.30;;;13.60;99.90;;;;;;5090821;28;20546;-74
2023/01/05 12:25:07;;;;;;;28.60;5.90;;;13.40;99.90;;;;;;5113562;28;20191;-75
2023/01/05 12:27:53;;;;;;;25.10;5.97;;;13.50;99.90;;;;;;5094648;28;20204;-74
2023/01/05 12:30:46;;;;;;;31.23;7.50;;;13.50;99.90;;;;;;5112669;28;20186;-76
2023/01/05 12:33:34;;;;;;;26.57;5.90;;;13.50;99.90;;;;;;5097055;28;20170;-75
2023/01/05 12:36:21;;;;;;;33.03;6.27;;;13.60;99.90;;;;;;5083122;28;20208;-75
2023/01/05 12:39:18;;;;;;;40.03;7.07;;;13.60;99.90;;;;;;5087333;28;20184;-75
2023/01/05 12:42:21;;;;;;;30.40;5.07;;;13.60;99.90;;;;;;5073431;28;20193;-75
2023/01/05 12:45:12;;;;;;;26.13;5.50;;;13.50;99.90;;;;;;5075006;28;20169;-74
2023/01/05 12:47:59;;;;;;;31.43;5.60;;;13.40;99.90;;;;;;5092724;28;20290;-75
2023/01/05 12:50:42;;;;;;;39.20;8.67;;;13.30;99.90;;;;;;5074300;28;20203;-75
2023/01/05 12:53:36;;;;;;;27.07;6.43;;;13.10;99.90;;;;;;5072858;28;20266;-74
2023/01/05 12:56:14;;;;;;;41.43;8.37;;;13.10;99.90;;;;;;5074314;28;20195;-74
2023/01/05 12:58:49;;;;;;;39.20;6.40;;;13.20;99.90;;;;;;5074688;28;20173;-74
2023/01/05 13:01:26;;;;;;;33.57;5.90;;;13.40;99.90;;;;;;5092497;28;20192;-74
2023/01/05 13:03:56;;;;;;;41.30;8.13;;;13.30;99.90;;;;;;5078909;28;20188;-74
2023/01/05 13:06:24;;;;;;;32.60;6.93;;;13.20;99.90;;;;;;5074190;28;20231;-75
2023/01/05 13:09:05;;;;;;;37.77;6.57;;;13.10;99.90;;;;;;5092115;28;20179;-74
2023/01/05 13:11:54;;;;;;;36.00;7.33;;;13.20;99.90;;;;;;5073184;28;20222;-74
2023/01/05 13:14:33;;;;;;;32.80;5.97;;;13.30;99.90;;;;;;5079226;28;20184;-76
2023/01/05 13:17:06;;;;;;;31.20;6.60;;;13.60;99.90;;;;;;5055323;28;20720;-75
2023/01/05 13:19:46;;;;;;;27.87;6.20;;;13.80;99.90;;;;;;5073427;28;20188;-74
2023/01/05 13:22:32;;;;;;;35.50;7.33;;;13.80;99.90;;;;;;5079581;28;20180;-74
2023/01/05 13:25:23;;;;;;;29.63;7.77;;;13.60;99.90;;;;;;5093517;28;20303;-75
2023/01/05 13:27:48;;;;;;;34.50;6.23;;;13.60;99.90;;;;;;5111630;28;20235;-75
2023/01/05 13:30:41;;;;;;;25.33;6.27;;;13.30;99.90;;;;;;5087223;28;20269;-76